»·PEaware :: N1718G L37-KIWA

N1718G :: L37-KIWA

FLIGHT INFORMATION

Flight Status: Arrived
Operator: Privately registered:
United States
More flights under this callsign
Pilot: Spencer M. (27733)
Aircraft: MOONEY M-20 201 202 205 220 ATS MSE
(M20P)
More flights by this aircraft type
Origin: L37 Grand Canyon Caverns
United States
Destination: KIWA Williams Gateway
United States
More flights between these airports :: More routes between these airports
Route: DRK V257 PXR
File this flight plan on PilotEdge
Remarks:
Altitude:
(Current/Filed)
11,000ft
Speed:
(Current/Filed)
160kts
Departed: 06-Oct-20 06:40 PM
Arrived: 06-Oct-20 07:50 PM
Distance/Time
Traveled:
155nm/1:10
Distance/Time
To Go:
Arrived

Flight Plot

Page will automatically refresh every two minutes.

Flight plan parsing failed; only flown route is shown


Map Options




Map Legend


Flown Route
Filed Route
Departure Airport
Arrival Airport
Navaid (VOR, NDB)
Fix

Horizontal Profiles

Position Reports

Time Latitude Longitude Heading Altitude Ground
Speed
06-Oct-20 18:33 35.529755 -113.239868 312 5388ft 0kts
06-Oct-20 18:34 35.529755 -113.239868 312 5388ft 0kts
06-Oct-20 18:35 35.529755 -113.239868 312 5388ft 0kts
06-Oct-20 18:36 35.529755 -113.239868 312 5388ft 0kts
06-Oct-20 18:37 35.529755 -113.239868 312 5388ft 0kts
06-Oct-20 18:38 35.529755 -113.239868 312 5388ft 0kts
06-Oct-20 18:39 35.527245 -113.247446 244 5388ft 67kts
06-Oct-20 18:40 35.517082 -113.274894 233 5913ft 95kts
06-Oct-20 18:41 35.494466 -113.268696 143 6677ft 103kts
06-Oct-20 18:42 35.471508 -113.244301 142 7385ft 117kts
06-Oct-20 18:43 35.445888 -113.216959 139 8092ft 126kts
06-Oct-20 18:44 35.419750 -113.187809 143 8793ft 127kts
06-Oct-20 18:45 35.390853 -113.159412 142 9312ft 138kts
06-Oct-20 18:46 35.360240 -113.129170 142 9838ft 142kts
06-Oct-20 18:47 35.330011 -113.099048 142 10434ft 139kts
06-Oct-20 18:48 35.300408 -113.069498 141 11031ft 136kts
06-Oct-20 18:49 35.268433 -113.037748 141 11122ft 161kts
06-Oct-20 18:50 35.231150 -113.000781 141 10994ft 177kts
06-Oct-20 18:51 35.192404 -112.962351 142 10989ft 180kts
06-Oct-20 18:52 35.153429 -112.923730 142 11016ft 180kts
06-Oct-20 18:53 35.114245 -112.884958 142 11013ft 182kts
06-Oct-20 18:54 35.074619 -112.845854 141 11000ft 184kts
06-Oct-20 18:55 35.034797 -112.806089 141 10978ft 185kts
06-Oct-20 18:56 34.994778 -112.766556 141 10976ft 185kts
06-Oct-20 18:57 34.954649 -112.727050 141 10976ft 185kts
06-Oct-20 18:58 34.914630 -112.687702 140 10976ft 185kts
06-Oct-20 18:59 34.874534 -112.648328 140 10993ft 185kts
06-Oct-20 19:00 34.834350 -112.608920 140 10995ft 185kts
06-Oct-20 19:01 34.794207 -112.569605 140 10995ft 186kts
06-Oct-20 19:02 34.753886 -112.530164 140 10995ft 186kts
06-Oct-20 19:03 34.713580 -112.490787 140 10995ft 186kts
06-Oct-20 19:04 34.666691 -112.466010 160 10995ft 186kts
06-Oct-20 19:05 34.617783 -112.445619 160 10995ft 186kts
06-Oct-20 19:06 34.575291 -112.413148 129 10995ft 185kts
06-Oct-20 19:07 34.542421 -112.364626 129 10995ft 186kts
06-Oct-20 19:08 34.508822 -112.317061 131 10995ft 186kts
06-Oct-20 19:09 34.474960 -112.269689 131 10995ft 186kts
06-Oct-20 19:10 34.437511 -112.227939 164 10993ft 186kts
06-Oct-20 19:11 34.386957 -112.214607 167 10995ft 186kts
06-Oct-20 19:12 34.336305 -112.201481 167 10995ft 186kts
06-Oct-20 19:13 34.285828 -112.188414 167 10995ft 186kts
06-Oct-20 19:14 34.235193 -112.175320 167 10994ft 186kts
06-Oct-20 19:15 34.184172 -112.162145 167 10920ft 189kts
06-Oct-20 19:16 34.133150 -112.148987 167 10996ft 182kts
06-Oct-20 19:17 34.082812 -112.136014 167 10937ft 187kts
06-Oct-20 19:18 34.032582 -112.123089 167 11009ft 185kts
06-Oct-20 19:19 33.982049 -112.110103 167 11009ft 186kts
06-Oct-20 19:20 33.931494 -112.097305 167 11008ft 184kts
06-Oct-20 19:21 33.881645 -112.085069 166 11009ft 182kts
06-Oct-20 19:22 33.832100 -112.072840 166 11009ft 181kts
06-Oct-20 19:23 33.782592 -112.060637 166 11003ft 182kts
06-Oct-20 19:24 33.733110 -112.048456 166 11001ft 181kts
06-Oct-20 19:25 33.683711 -112.036315 166 11001ft 181kts
06-Oct-20 19:26 33.634174 -112.024156 166 11002ft 181kts
06-Oct-20 19:27 33.584785 -112.012051 166 11000ft 182kts
06-Oct-20 19:28 33.532952 -111.999336 166 10360ft 195kts
06-Oct-20 19:29 33.483448 -111.985900 166 9377ft 168kts
06-Oct-20 19:30 33.440884 -111.972152 151 8467ft 154kts
06-Oct-20 19:31 33.418170 -111.929158 122 7562ft 153kts
06-Oct-20 19:32 33.394409 -111.886419 129 6714ft 160kts
06-Oct-20 19:33 33.366555 -111.841402 124 5917ft 175kts
06-Oct-20 19:34 33.340268 -111.791216 124 5115ft 179kts
06-Oct-20 19:35 33.314122 -111.741532 123 4589ft 166kts
06-Oct-20 19:36 33.290649 -111.697016 119 4587ft 152kts
06-Oct-20 19:37 33.270313 -111.653426 114 4605ft 152kts
06-Oct-20 19:38 33.249616 -111.608715 117 4608ft 154kts
06-Oct-20 19:39 33.227513 -111.564574 127 4600ft 157kts
06-Oct-20 19:40 33.192402 -111.530305 175 4196ft 174kts
06-Oct-20 19:41 33.145288 -111.523891 128 3720ft 174kts
06-Oct-20 19:42 33.166962 -111.500309 320 3310ft 158kts
06-Oct-20 19:43 33.198604 -111.532781 321 3309ft 144kts
06-Oct-20 19:44 33.228828 -111.562958 319 3232ft 142kts
06-Oct-20 19:45 33.253638 -111.591181 317 2598ft 98kts
06-Oct-20 19:46 33.270142 -111.610809 315 2046ft 77kts
06-Oct-20 19:47 33.282009 -111.631516 313 1731ft 75kts
06-Oct-20 19:48 33.296896 -111.648724 316 1438ft 71kts
06-Oct-20 19:49 33.306034 -111.659390 314 1381ft 22kts
06-Oct-20 19:50 33.307026 -111.664544 271 1381ft 13kts
06-Oct-20 19:51 33.307047 -111.665546 274 1381ft 0kts

Navigation Log

Ident Type
Flight plan parsing failed, navigation log unavailable